Time;durP1;ratioP1;P1;durP2;ratioP2;P2;SDS_P1;SDS_P2;PMS_P1;PMS_P2;Temp;Humidity;BMP_temperature;BMP_pressure;BME280_temperature;BME280_humidity;BME280_pressure;Samples;Min_cycle;Max_cycle;Signal;HPM_P1;HPM_P2
2023/10/13 00:01:59;;;;;;;;;;;17.50;84.10;;;;;;5020812;28;20042;-81
2023/10/13 00:04:25;;;;;;;;;;;17.30;84.80;;;;;;5020599;28;19913;-84
2023/10/13 00:06:56;;;;;;;;;;;17.10;86.20;;;;;;5021099;28;19921;-81
2023/10/13 00:09:29;;;;;;;;;;;17.00;87.30;;;;;;5021045;28;19913;-82
2023/10/13 00:11:56;;;;;;;;;;;17.00;87.70;;;;;;5017719;28;20517;-82
2023/10/13 00:14:21;;;;;;;;;;;17.00;87.70;;;;;;5015693;28;20411;-82
2023/10/13 00:17:03;;;;;;;;;;;16.90;88.00;;;;;;5016105;28;19917;-81
2023/10/13 00:19:44;;;;;;;;;;;17.00;86.80;;;;;;5013510;28;20031;-83
2023/10/13 00:22:10;;;;;;;;;;;17.00;86.70;;;;;;5019935;28;19928;-82
2023/10/13 00:24:51;;;;;;;;;;;16.90;87.40;;;;;;5022440;28;19913;-81
2023/10/13 00:27:41;;;;;;;;;;;16.80;88.20;;;;;;5012153;28;19922;-82
2023/10/13 00:30:24;;;;;;;;;;;16.70;88.90;;;;;;5020758;28;19909;-82
2023/10/13 00:32:55;;;;;;;;;;;16.60;89.70;;;;;;5019339;28;19913;-82
2023/10/13 00:37:55;;;;;;;;;;;16.60;90.10;;;;;;5027043;28;19913;-82
2023/10/13 00:43:06;;;;;;;;;;;16.50;90.50;;;;;;5019315;28;20058;-84
2023/10/13 00:45:33;;;;;;;;;;;16.50;90.60;;;;;;5020332;28;19909;-82
2023/10/13 00:48:01;;;;;;;;;;;16.50;90.40;;;;;;5023692;28;19917;-82
2023/10/13 00:50:29;;;;;;;;;;;16.60;90.20;;;;;;5026947;28;19913;-82
2023/10/13 00:52:55;;;;;;;;;;;16.70;90.10;;;;;;5026332;28;19912;-82
2023/10/13 00:55:26;;;;;;;;;;;16.70;90.20;;;;;;5021195;28;19959;-82
2023/10/13 00:57:54;;;;;;;;;;;16.60;90.40;;;;;;5021361;28;20300;-82
2023/10/13 01:00:24;;;;;;;;;;;16.50;90.60;;;;;;5020891;28;19917;-84
2023/10/13 01:02:56;;;;;;;;;;;16.30;90.90;;;;;;5025673;28;19920;-83
2023/10/13 01:05:22;;;;;;;;;;;16.20;91.30;;;;;;5024127;28;19913;-82
2023/10/13 01:07:58;;;;;;;;;;;16.10;91.60;;;;;;5023261;28;19963;-82
2023/10/13 01:10:27;;;;;;;;;;;16.10;92.10;;;;;;5024067;28;19917;-83
2023/10/13 01:12:54;;;;;;;;;;;16.10;92.00;;;;;;5026324;28;19952;-83
2023/10/13 01:15:22;;;;;;;;;;;16.20;92.00;;;;;;5013197;28;20327;-84
2023/10/13 01:17:48;;;;;;;;;;;16.20;91.90;;;;;;5013425;28;20807;-84
2023/10/13 01:20:26;;;;;;;;;;;16.20;91.80;;;;;;5024520;28;20007;-82
2023/10/13 01:22:55;;;;;;;;;;;16.20;91.80;;;;;;5010610;28;20380;-83
2023/10/13 01:25:27;;;;;;;;;;;16.20;91.80;;;;;;5022811;28;19976;-83
2023/10/13 01:27:53;;;;;;;;;;;16.20;91.80;;;;;;5017394;28;19913;-83
2023/10/13 01:30:26;;;;;;;;;;;16.10;91.90;;;;;;5009440;28;19984;-83
2023/10/13 01:32:53;;;;;;;;;;;16.10;91.80;;;;;;5017506;28;19909;-83
2023/10/13 01:35:24;;;;;;;;;;;16.10;91.90;;;;;;5025687;28;19912;-83
2023/10/13 01:37:50;;;;;;;;;;;16.10;92.00;;;;;;5020236;28;20515;-83
2023/10/13 01:40:19;;;;;;;;;;;16.00;92.00;;;;;;5025373;28;19999;-83
2023/10/13 01:42:55;;;;;;;;;;;16.00;92.00;;;;;;5024099;28;19956;-84
2023/10/13 01:45:28;;;;;;;;;;;15.90;92.00;;;;;;5023479;28;19963;-83
2023/10/13 01:47:54;;;;;;;;;;;16.00;92.10;;;;;;5017633;28;20379;-83
2023/10/13 01:50:21;;;;;;;;;;;15.90;92.00;;;;;;5010701;28;19990;-83
2023/10/13 01:52:46;;;;;;;;;;;15.90;92.00;;;;;;5018480;28;19916;-84
2023/10/13 01:55:14;;;;;;;;;;;15.90;92.10;;;;;;5020118;28;19913;-84
2023/10/13 01:57:42;;;;;;;;;;;15.80;92.20;;;;;;5020593;28;20478;-84
2023/10/13 02:00:18;;;;;;;;;;;15.80;92.20;;;;;;5022028;28;19917;-85
2023/10/13 02:02:45;;;;;;;;;;;15.80;92.30;;;;;;5025398;28;20391;-85
2023/10/13 02:05:10;;;;;;;;;;;15.80;92.30;;;;;;5020840;28;19912;-84
2023/10/13 02:07:38;;;;;;;;;;;15.60;92.60;;;;;;5026141;28;19913;-83
2023/10/13 02:10:05;;;;;;;;;;;15.60;92.80;;;;;;5023816;28;19912;-85
2023/10/13 02:12:42;;;;;;;;;;;15.60;92.80;;;;;;5023259;28;20430;-83
2023/10/13 02:15:12;;;;;;;;;;;15.60;92.80;;;;;;5023513;28;19916;-84
2023/10/13 02:17:41;;;;;;;;;;;15.50;92.80;;;;;;5019162;28;19975;-83
2023/10/13 02:20:16;;;;;;;;;;;15.60;92.70;;;;;;5023411;28;20605;-82
2023/10/13 02:23:00;;;;;;;;;;;15.60;92.60;;;;;;5024464;28;19921;-82
2023/10/13 02:25:45;;;;;;;;;;;15.60;92.60;;;;;;5019522;28;19987;-84
2023/10/13 02:28:14;;;;;;;;;;;15.50;92.90;;;;;;5024052;28;19913;-82
2023/10/13 02:30:50;;;;;;;;;;;15.40;92.90;;;;;;5012861;28;19917;-83
2023/10/13 02:33:21;;;;;;;;;;;15.40;93.00;;;;;;5020281;28;20022;-83
2023/10/13 02:35:53;;;;;;;;;;;15.40;92.90;;;;;;5022790;28;19921;-83
2023/10/13 02:38:33;;;;;;;;;;;15.40;93.00;;;;;;5023416;28;19912;-84
2023/10/13 02:41:05;;;;;;;;;;;15.30;92.90;;;;;;5020053;28;20050;-83
2023/10/13 02:43:33;;;;;;;;;;;15.30;93.20;;;;;;5021529;28;19921;-83
2023/10/13 02:45:59;;;;;;;;;;;15.30;93.20;;;;;;5020851;28;19971;-83
2023/10/13 02:48:30;;;;;;;;;;;15.30;93.20;;;;;;5017638;28;20012;-84
2023/10/13 02:50:56;;;;;;;;;;;15.20;93.20;;;;;;5023132;28;19920;-84
2023/10/13 02:53:22;;;;;;;;;;;15.20;93.20;;;;;;5018814;28;20000;-83
2023/10/13 02:55:51;;;;;;;;;;;15.20;93.40;;;;;;5024302;28;20646;-82
2023/10/13 02:58:17;;;;;;;;;;;15.20;93.30;;;;;;5048474;28;20472;-82
2023/10/13 03:00:44;;;;;;;;;;;15.20;93.40;;;;;;5023133;28;19972;-81
2023/10/13 03:03:09;;;;;;;;;;;15.20;93.50;;;;;;5024657;28;19925;-82
2023/10/13 03:05:35;;;;;;;;;;;15.10;93.60;;;;;;5026464;28;19975;-82
2023/10/13 03:08:04;;;;;;;;;;;15.20;93.40;;;;;;5028732;28;19952;-82
2023/10/13 03:10:29;;;;;;;;;;;15.10;93.50;;;;;;5024139;28;20883;-83
2023/10/13 03:12:55;;;;;;;;;;;14.80;94.00;;;;;;5017765;28;19992;-85
2023/10/13 03:15:28;;;;;;;;;;;14.90;94.10;;;;;;5022603;28;20411;-84
2023/10/13 03:17:54;;;;;;;;;;;14.90;94.00;;;;;;5023193;28;19909;-83
2023/10/13 03:20:30;;;;;;;;;;;14.90;94.00;;;;;;5016931;28;20593;-82
2023/10/13 03:22:55;;;;;;;;;;;15.00;94.00;;;;;;5009424;28;19917;-81
2023/10/13 03:25:29;;;;;;;;;;;14.90;94.00;;;;;;5011962;28;19982;-83
2023/10/13 03:30:21;;;;;;;;;;;15.00;93.80;;;;;;5010544;28;20266;-84
2023/10/13 03:32:54;;;;;;;;;;;14.80;94.10;;;;;;5020872;28;19940;-83
2023/10/13 03:35:31;;;;;;;;;;;14.80;94.20;;;;;;5013317;28;19923;-83
2023/10/13 03:37:57;;;;;;;;;;;14.80;94.10;;;;;;5023553;28;19920;-83
2023/10/13 03:45:38;;;;;;;;;;;14.70;94.50;;;;;;5011130;28;19975;-83
2023/10/13 03:48:08;;;;;;;;;;;14.70;94.30;;;;;;5020264;28;20373;-81
2023/10/13 03:50:46;;;;;;;;;;;14.80;94.20;;;;;;5018685;28;19959;-83
2023/10/13 03:53:13;;;;;;;;;;;14.70;94.20;;;;;;5018747;28;19913;-82
2023/10/13 03:55:39;;;;;;;;;;;14.70;94.20;;;;;;5023368;28;19976;-82
2023/10/13 03:58:04;;;;;;;;;;;14.70;94.10;;;;;;5017519;28;20655;-81
2023/10/13 04:00:31;;;;;;;;;;;14.70;94.00;;;;;;5020887;28;19913;-83
2023/10/13 04:06:00;;;;;;;;;;;14.70;94.20;;;;;;5026404;28;19944;-82
2023/10/13 04:21:55;;;;;;;;;;;14.60;94.20;;;;;;5022714;28;19975;-82
2023/10/13 04:32:15;;;;;;;;;;;14.30;95.10;;;;;;5019785;28;19913;-80
2023/10/13 04:34:46;;;;;;;;;;;14.30;95.00;;;;;;5022952;28;20459;-81
2023/10/13 04:37:33;;;;;;;;;;;14.30;95.00;;;;;;5013503;28;19925;-83
2023/10/13 04:40:09;;;;;;;;;;;14.30;95.10;;;;;;5009107;28;19916;-82
2023/10/13 04:43:32;;;;;;;;;;;14.20;95.20;;;;;;5018734;28;20000;-81
2023/10/13 04:50:47;;;;;;;;;;;13.90;96.10;;;;;;5020787;28;19917;-82
2023/10/13 04:53:30;;;;;;;;;;;14.00;96.10;;;;;;5022705;28;19913;-81
2023/10/13 04:56:50;;;;;;;;;;;14.00;95.80;;;;;;5020571;28;19971;-82
2023/10/13 05:04:38;;;;;;;;;;;14.30;95.00;;;;;;5012958;28;19924;-83
2023/10/13 05:45:36;;;;;;;;;;;14.20;94.70;;;;;;5019722;28;19967;-82
2023/10/13 05:48:11;;;;;;;;;;;14.20;94.70;;;;;;5025357;28;19939;-82
2023/10/13 06:29:25;;;;;;;;;;;15.40;91.70;;;;;;5012822;28;20046;-83
2023/10/13 06:31:50;;;;;;;;;;;15.50;91.50;;;;;;5022747;28;20826;-82
2023/10/13 06:34:20;;;;;;;;;;;15.50;91.30;;;;;;5026378;28;20513;-81
2023/10/13 06:36:47;;;;;;;;;;;15.70;91.10;;;;;;5025113;28;19909;-82
2023/10/13 06:41:56;;;;;;;;;;;15.80;90.90;;;;;;5024370;28;20358;-81
2023/10/13 06:44:24;;;;;;;;;;;16.00;90.80;;;;;;5025087;28;20469;-81
2023/10/13 06:46:50;;;;;;;;;;;16.10;90.40;;;;;;5024120;28;19913;-82
2023/10/13 06:49:18;;;;;;;;;;;16.20;90.10;;;;;;5014135;28;20356;-81
2023/10/13 06:51:46;;;;;;;;;;;16.30;90.00;;;;;;5024479;28;19979;-83
2023/10/13 06:54:19;;;;;;;;;;;16.30;89.20;;;;;;5014166;28;19966;-81
2023/10/13 06:56:45;;;;;;;;;;;16.50;88.80;;;;;;5024100;28;20467;-82
2023/10/13 06:59:14;;;;;;;;;;;16.70;87.90;;;;;;5024342;28;19909;-81
2023/10/13 07:01:44;;;;;;;;;;;17.20;86.50;;;;;;5024168;28;19978;-82
2023/10/13 07:04:13;;;;;;;;;;;17.40;85.40;;;;;;5016660;28;19924;-82
2023/10/13 07:06:47;;;;;;;;;;;17.90;83.70;;;;;;5023749;28;19909;-81
2023/10/13 07:09:39;;;;;;;;;;;18.00;82.50;;;;;;5019506;28;19916;-81
2023/10/13 07:12:01;;;;;;;;;;;18.30;81.00;;;;;;5024219;28;19915;-82
2023/10/13 07:14:27;;;;;;;;;;;18.50;80.20;;;;;;5024654;28;19909;-82
2023/10/13 07:16:58;;;;;;;;;;;18.90;79.10;;;;;;5024649;28;19905;-82
2023/10/13 07:19:27;;;;;;;;;;;19.30;77.70;;;;;;5024605;28;19916;-82
2023/10/13 07:22:02;;;;;;;;;;;20.40;76.00;;;;;;5024514;28;19909;-82
2023/10/13 07:24:31;;;;;;;;;;;20.50;75.10;;;;;;5024418;28;19909;-82
2023/10/13 07:27:04;;;;;;;;;;;20.60;75.20;;;;;;5022000;28;19925;-82
2023/10/13 07:29:30;;;;;;;;;;;20.80;74.50;;;;;;5019412;28;19909;-82
2023/10/13 07:31:56;;;;;;;;;;;20.80;73.70;;;;;;5023888;28;19915;-82
2023/10/13 07:34:26;;;;;;;;;;;21.10;73.30;;;;;;5021660;28;19909;-82
2023/10/13 07:36:52;;;;;;;;;;;21.30;71.60;;;;;;5024396;28;19948;-82
2023/10/13 07:39:21;;;;;;;;;;;21.70;70.50;;;;;;5012955;28;19921;-82
2023/10/13 07:42:06;;;;;;;;;;;22.30;69.90;;;;;;5019918;28;19909;-82
2023/10/13 07:44:33;;;;;;;;;;;22.10;71.30;;;;;;5031397;28;19909;-82
2023/10/13 07:46:59;;;;;;;;;;;22.00;71.30;;;;;;5019836;28;20606;-82
2023/10/13 07:49:39;;;;;;;;;;;22.40;70.40;;;;;;5020425;28;19979;-82
2023/10/13 07:54:49;;;;;;;;;;;22.30;69.80;;;;;;5022928;28;19948;-81
2023/10/13 07:57:17;;;;;;;;;;;22.50;71.20;;;;;;5023180;28;20419;-83
2023/10/13 07:59:50;;;;;;;;;;;22.40;70.30;;;;;;5018194;28;19917;-82
2023/10/13 08:02:48;;;;;;;;;;;22.40;69.50;;;;;;5020754;28;20507;-82
2023/10/13 08:05:04;;;;;;;;;;;22.40;70.00;;;;;;5021154;28;19909;-82
2023/10/13 08:07:30;;;;;;;;;;;22.50;69.40;;;;;;5015653;28;19910;-82
2023/10/13 08:09:59;;;;;;;;;;;22.20;69.80;;;;;;5016499;28;19913;-82
2023/10/13 08:12:25;;;;;;;;;;;22.20;69.10;;;;;;5020100;28;19996;-82
2023/10/13 08:15:09;;;;;;;;;;;22.30;68.90;;;;;;5017179;28;20376;-82
2023/10/13 08:17:34;;;;;;;;;;;22.60;68.10;;;;;;5019701;28;19913;-81
2023/10/13 08:20:11;;;;;;;;;;;22.80;67.80;;;;;;5015356;28;19987;-82
2023/10/13 08:22:38;;;;;;;;;;;23.20;67.70;;;;;;5014084;28;19917;-82
2023/10/13 08:25:20;;;;;;;;;;;23.20;67.90;;;;;;5015779;28;20711;-82
2023/10/13 08:30:33;;;;;;;;;;;24.00;66.70;;;;;;5012527;28;19951;-82
2023/10/13 08:33:04;;;;;;;;;;;24.20;67.00;;;;;;5020620;28;19999;-82
2023/10/13 08:43:11;;;;;;;;;;;24.90;65.10;;;;;;5021993;28;19936;-82
2023/10/13 09:09:35;;;;;;;;;;;25.70;65.70;;;;;;5016761;28;19914;-82
2023/10/13 09:12:10;;;;;;;;;;;26.00;64.70;;;;;;5021215;28;20012;-82
2023/10/13 09:14:43;;;;;;;;;;;26.10;65.10;;;;;;5024101;28;19916;-82
2023/10/13 09:19:58;;;;;;;;;;;26.00;65.50;;;;;;4998687;28;20189;-82
2023/10/13 09:22:26;;;;;;;;;;;26.70;63.70;;;;;;5018919;28;19923;-82
2023/10/13 09:24:59;;;;;;;;;;;27.10;62.10;;;;;;5014651;28;19979;-81
2023/10/13 09:27:26;;;;;;;;;;;26.60;63.30;;;;;;5019517;28;19913;-82
2023/10/13 09:30:22;;;;;;;;;;;26.90;61.70;;;;;;5020350;28;20584;-82
2023/10/13 09:33:01;;;;;;;;;;;26.10;61.70;;;;;;5024204;28;19913;-82
2023/10/13 09:35:27;;;;;;;;;;;25.20;65.00;;;;;;5008883;28;19909;-82
2023/10/13 09:37:56;;;;;;;;;;;25.20;64.50;;;;;;5022603;28;19929;-83
2023/10/13 09:40:26;;;;;;;;;;;25.10;65.60;;;;;;5025518;28;19909;-82
2023/10/13 09:42:52;;;;;;;;;;;25.30;64.50;;;;;;5014245;28;20025;-82
2023/10/13 09:45:18;;;;;;;;;;;25.50;64.60;;;;;;5012173;28;19913;-82
2023/10/13 09:47:52;;;;;;;;;;;25.00;64.80;;;;;;5014173;28;19920;-82
2023/10/13 09:50:24;;;;;;;;;;;25.10;64.30;;;;;;5016590;28;19990;-81
2023/10/13 09:52:53;;;;;;;;;;;25.00;65.30;;;;;;5021919;28;19935;-82
2023/10/13 09:55:29;;;;;;;;;;;25.20;64.90;;;;;;5019294;28;19963;-82
2023/10/13 09:58:13;;;;;;;;;;;25.30;63.70;;;;;;5018240;28;19916;-82
2023/10/13 10:06:03;;;;;;;;;;;25.20;64.60;;;;;;5020429;28;19920;-83
2023/10/13 10:08:39;;;;;;;;;;;25.40;64.80;;;;;;5019756;28;20367;-82
2023/10/13 10:11:15;;;;;;;;;;;25.40;64.20;;;;;;5021258;28;19917;-82
2023/10/13 10:14:04;;;;;;;;;;;25.00;63.70;;;;;;5023917;28;20671;-82
2023/10/13 10:16:46;;;;;;;;;;;25.30;64.30;;;;;;5017413;28;19910;-82
2023/10/13 10:19:12;;;;;;;;;;;25.50;64.20;;;;;;5024083;28;20034;-82
2023/10/13 10:21:40;;;;;;;;;;;25.20;63.30;;;;;;5019387;28;20041;-82
2023/10/13 10:24:22;;;;;;;;;;;25.20;63.20;;;;;;5025277;28;20288;-82
2023/10/13 10:26:54;;;;;;;;;;;25.30;65.40;;;;;;5021286;28;19931;-82
2023/10/13 10:29:19;;;;;;;;;;;25.40;64.80;;;;;;5022958;28;19909;-82
2023/10/13 10:31:45;;;;;;;;;;;25.50;64.20;;;;;;5024896;28;20368;-82
2023/10/13 10:34:12;;;;;;;;;;;25.50;63.40;;;;;;5013911;28;19960;-82
2023/10/13 10:36:42;;;;;;;;;;;25.50;64.30;;;;;;5019950;28;19968;-81
2023/10/13 10:39:09;;;;;;;;;;;25.50;64.60;;;;;;5006639;28;19916;-82
2023/10/13 10:44:09;;;;;;;;;;;25.10;64.10;;;;;;5007169;28;20472;-82
2023/10/13 10:46:42;;;;;;;;;;;25.10;63.30;;;;;;5022506;28;19969;-82
2023/10/13 10:49:08;;;;;;;;;;;25.00;63.90;;;;;;5014398;28;19910;-82
2023/10/13 10:51:43;;;;;;;;;;;25.00;63.90;;;;;;5009169;28;19909;-82
2023/10/13 10:54:18;;;;;;;;;;;25.00;64.10;;;;;;5011725;28;19909;-82
2023/10/13 10:56:44;;;;;;;;;;;25.20;64.60;;;;;;5008645;28;20031;-82
2023/10/13 10:59:19;;;;;;;;;;;25.00;64.20;;;;;;5014091;28;19915;-83
2023/10/13 11:01:50;;;;;;;;;;;25.30;65.30;;;;;;5009636;28;20255;-83
2023/10/13 11:06:55;;;;;;;;;;;25.30;64.30;;;;;;5023776;28;19913;-82
2023/10/13 11:11:57;;;;;;;;;;;25.30;63.20;;;;;;5023895;28;19915;-83
2023/10/13 11:14:23;;;;;;;;;;;25.30;64.30;;;;;;5021621;28;20403;-82
2023/10/13 11:16:53;;;;;;;;;;;25.40;64.10;;;;;;5019962;28;19913;-82
2023/10/13 11:19:38;;;;;;;;;;;25.30;63.80;;;;;;5024184;28;19962;-82
2023/10/13 11:22:10;;;;;;;;;;;25.30;64.30;;;;;;5015479;28;20808;-82
2023/10/13 11:24:39;;;;;;;;;;;25.20;62.40;;;;;;5017158;28;20020;-82
2023/10/13 11:27:16;;;;;;;;;;;25.30;65.00;;;;;;5024060;28;19921;-82
2023/10/13 11:29:41;;;;;;;;;;;25.30;64.50;;;;;;5022531;28;19909;-82
2023/10/13 11:32:08;;;;;;;;;;;25.20;63.40;;;;;;5029890;28;19915;-82
2023/10/13 11:34:40;;;;;;;;;;;25.10;63.70;;;;;;5020729;28;20414;-82
2023/10/13 11:37:28;;;;;;;;;;;25.10;63.80;;;;;;5005137;28;19916;-82
2023/10/13 11:39:51;;;;;;;;;;;25.10;63.90;;;;;;5022764;28;20296;-82
2023/10/13 11:42:17;;;;;;;;;;;25.10;65.20;;;;;;5012861;28;19909;-82
2023/10/13 11:44:43;;;;;;;;;;;25.10;64.10;;;;;;5023251;28;19955;-83
2023/10/13 11:50:01;;;;;;;;;;;25.20;65.50;;;;;;5012264;28;19924;-82
2023/10/13 11:52:29;;;;;;;;;;;25.20;66.20;;;;;;5024397;28;20470;-82
2023/10/13 11:54:54;;;;;;;;;;;25.30;65.10;;;;;;5024660;28;19916;-82
2023/10/13 11:57:21;;;;;;;;;;;25.30;64.40;;;;;;5024114;28;19908;-82
2023/10/13 11:59:53;;;;;;;;;;;25.40;65.30;;;;;;5024575;28;19909;-82
2023/10/13 12:05:03;;;;;;;;;;;25.30;63.90;;;;;;5015167;28;20012;-82
2023/10/13 12:07:51;;;;;;;;;;;25.30;64.80;;;;;;5017293;28;19913;-82
2023/10/13 12:10:33;;;;;;;;;;;25.30;63.80;;;;;;5020459;28;19916;-83
2023/10/13 12:13:05;;;;;;;;;;;25.20;63.90;;;;;;5022034;28;20010;-82
2023/10/13 12:15:36;;;;;;;;;;;25.30;64.30;;;;;;5023106;28;19916;-82
2023/10/13 12:18:03;;;;;;;;;;;25.50;64.70;;;;;;5012672;28;19937;-82
2023/10/13 12:20:32;;;;;;;;;;;25.50;65.50;;;;;;5017281;28;19909;-82
2023/10/13 12:23:09;;;;;;;;;;;25.40;64.40;;;;;;5013228;28;19976;-82
2023/10/13 12:25:44;;;;;;;;;;;25.20;64.40;;;;;;5017067;28;19963;-83
2023/10/13 12:28:18;;;;;;;;;;;25.30;65.20;;;;;;5015514;28;19908;-83
2023/10/13 12:30:52;;;;;;;;;;;25.60;64.40;;;;;;5013888;28;20407;-82
2023/10/13 12:33:24;;;;;;;;;;;25.50;64.70;;;;;;5018693;28;19909;-82
2023/10/13 12:36:03;;;;;;;;;;;25.50;64.00;;;;;;5004043;28;19909;-82
2023/10/13 12:49:49;;;;;;;;;;;25.80;62.60;;;;;;5012140;28;20335;-82
2023/10/13 12:52:33;;;;;;;;;;;25.80;63.20;;;;;;5021282;28;20016;-82
2023/10/13 12:55:05;;;;;;;;;;;25.70;62.90;;;;;;5013676;28;20450;-83
2023/10/13 12:57:32;;;;;;;;;;;25.60;63.30;;;;;;5023017;28;20010;-82
2023/10/13 12:59:57;;;;;;;;;;;25.60;63.40;;;;;;5016210;28;19905;-82
2023/10/13 13:02:27;;;;;;;;;;;25.60;61.90;;;;;;5012539;28;19917;-82
2023/10/13 13:05:11;;;;;;;;;;;25.50;62.40;;;;;;5011785;28;19920;-82
2023/10/13 13:07:46;;;;;;;;;;;25.60;61.40;;;;;;5016520;28;19932;-82
2023/10/13 13:10:15;;;;;;;;;;;25.80;61.70;;;;;;5021421;28;19916;-82
2023/10/13 13:12:41;;;;;;;;;;;25.50;61.80;;;;;;5015259;28;20254;-82
2023/10/13 13:15:08;;;;;;;;;;;25.30;62.30;;;;;;5022949;28;19916;-82
2023/10/13 13:17:38;;;;;;;;;;;25.10;62.40;;;;;;5013193;28;19910;-82
2023/10/13 13:20:30;;;;;;;;;;;25.30;62.30;;;;;;5021676;28;19919;-82
2023/10/13 13:22:54;;;;;;;;;;;25.40;61.80;;;;;;5017879;28;20513;-82
2023/10/13 13:25:30;;;;;;;;;;;25.40;61.60;;;;;;5014711;28;20029;-83
2023/10/13 13:27:56;;;;;;;;;;;25.20;61.30;;;;;;5016438;28;19909;-82
2023/10/13 13:30:22;;;;;;;;;;;25.20;61.20;;;;;;5018030;28;20339;-82
2023/10/13 13:32:48;;;;;;;;;;;25.10;62.00;;;;;;5020667;28;19905;-82
2023/10/13 13:35:15;;;;;;;;;;;25.20;61.50;;;;;;5016244;28;20665;-82
2023/10/13 13:37:44;;;;;;;;;;;25.10;61.40;;;;;;5003614;28;19917;-83
2023/10/13 13:40:17;;;;;;;;;;;25.20;61.60;;;;;;5021317;28;19909;-83
2023/10/13 13:42:44;;;;;;;;;;;25.30;61.60;;;;;;5022433;28;19913;-82
2023/10/13 13:45:27;;;;;;;;;;;25.40;61.20;;;;;;5026739;28;19909;-82
2023/10/13 13:47:55;;;;;;;;;;;25.60;60.60;;;;;;5015034;28;19913;-82
2023/10/13 13:50:26;;;;;;;;;;;25.60;59.60;;;;;;5009130;28;19913;-82
2023/10/13 13:52:57;;;;;;;;;;;25.60;59.80;;;;;;5011966;28;19920;-83
2023/10/13 13:55:24;;;;;;;;;;;25.70;59.20;;;;;;5019466;28;19948;-82
2023/10/13 13:57:50;;;;;;;;;;;25.70;59.70;;;;;;5014487;28;19913;-83
2023/10/13 14:00:18;;;;;;;;;;;25.80;59.80;;;;;;5012319;28;19916;-82
2023/10/13 14:02:49;;;;;;;;;;;25.70;59.60;;;;;;5015180;28;20690;-82
2023/10/13 14:05:15;;;;;;;;;;;25.60;59.70;;;;;;5017222;28;19916;-83
2023/10/13 14:07:50;;;;;;;;;;;25.60;58.50;;;;;;5021774;28;19909;-82
2023/10/13 14:10:31;;;;;;;;;;;25.60;58.90;;;;;;5018498;28;19909;-82
2023/10/13 14:13:12;;;;;;;;;;;25.70;58.20;;;;;;5017886;28;20400;-83
2023/10/13 14:15:43;;;;;;;;;;;25.80;58.50;;;;;;5014865;28;19908;-83
2023/10/13 14:18:14;;;;;;;;;;;25.60;58.70;;;;;;5020712;28;19910;-82
2023/10/13 14:20:41;;;;;;;;;;;25.70;58.00;;;;;;5018744;28;20535;-83
2023/10/13 14:23:09;;;;;;;;;;;25.60;58.60;;;;;;5016737;28;19920;-83
2023/10/13 14:25:38;;;;;;;;;;;25.90;57.10;;;;;;5023056;28;19927;-82
2023/10/13 14:28:06;;;;;;;;;;;25.80;54.70;;;;;;5022401;28;19917;-82
2023/10/13 14:30:32;;;;;;;;;;;25.80;54.50;;;;;;5023463;28;19909;-82
2023/10/13 14:32:58;;;;;;;;;;;25.80;54.70;;;;;;5023012;28;19912;-83
2023/10/13 14:35:25;;;;;;;;;;;25.80;54.30;;;;;;5007043;28;19917;-83
2023/10/13 14:37:52;;;;;;;;;;;25.60;55.90;;;;;;5008512;28;19909;-82
2023/10/13 14:40:21;;;;;;;;;;;25.40;56.20;;;;;;5017509;28;19936;-83
2023/10/13 14:42:47;;;;;;;;;;;25.50;56.50;;;;;;5009166;28;19916;-82
2023/10/13 14:45:13;;;;;;;;;;;25.50;57.40;;;;;;5007863;28;19909;-83
2023/10/13 14:47:39;;;;;;;;;;;25.70;57.10;;;;;;5010053;28;19917;-82
2023/10/13 14:50:05;;;;;;;;;;;26.00;54.60;;;;;;5016214;28;19920;-82
2023/10/13 14:52:31;;;;;;;;;;;25.90;53.80;;;;;;5024253;28;19909;-83
2023/10/13 14:54:57;;;;;;;;;;;26.00;51.00;;;;;;5018401;28;19917;-83
2023/10/13 14:57:26;;;;;;;;;;;26.00;48.90;;;;;;5012767;28;20280;-83
2023/10/13 14:59:52;;;;;;;;;;;26.30;48.00;;;;;;5018653;28;19916;-82
2023/10/13 15:02:18;;;;;;;;;;;26.40;48.90;;;;;;5013098;28;19913;-83
2023/10/13 15:04:44;;;;;;;;;;;26.30;49.80;;;;;;5013139;28;19909;-82
2023/10/13 15:07:09;;;;;;;;;;;26.30;49.40;;;;;;5025837;28;20341;-82
2023/10/13 15:09:35;;;;;;;;;;;26.40;47.50;;;;;;5017249;28;19963;-82
2023/10/13 15:12:05;;;;;;;;;;;26.40;47.90;;;;;;5019042;28;19909;-82
2023/10/13 15:14:33;;;;;;;;;;;26.50;48.40;;;;;;5015827;28;19917;-83
2023/10/13 15:17:00;;;;;;;;;;;26.40;48.50;;;;;;5009842;28;19913;-83
2023/10/13 15:19:26;;;;;;;;;;;26.30;48.60;;;;;;5019152;28;20659;-82
2023/10/13 15:21:52;;;;;;;;;;;26.30;48.40;;;;;;5022481;28;19909;-83
2023/10/13 15:24:20;;;;;;;;;;;26.20;48.70;;;;;;5018079;28;19921;-82
2023/10/13 15:26:49;;;;;;;;;;;26.00;50.00;;;;;;5023263;28;19927;-82
2023/10/13 15:29:18;;;;;;;;;;;25.90;50.50;;;;;;5020343;28;19948;-81
2023/10/13 15:34:28;;;;;;;;;;;25.90;51.20;;;;;;5013290;28;20035;-82
2023/10/13 15:36:55;;;;;;;;;;;26.00;51.40;;;;;;5016846;28;19909;-83
2023/10/13 15:39:24;;;;;;;;;;;26.10;51.00;;;;;;5018797;28;19913;-82
2023/10/13 15:41:53;;;;;;;;;;;26.00;51.70;;;;;;5013095;28;19923;-83
2023/10/13 15:44:20;;;;;;;;;;;25.80;51.80;;;;;;5021751;28;19932;-83
2023/10/13 15:46:49;;;;;;;;;;;25.80;52.00;;;;;;5013078;28;19971;-82
2023/10/13 15:49:17;;;;;;;;;;;25.60;52.40;;;;;;5013189;28;19924;-82
2023/10/13 15:51:43;;;;;;;;;;;25.60;52.70;;;;;;5016503;28;19910;-82
2023/10/13 15:54:14;;;;;;;;;;;25.50;53.30;;;;;;5013655;28;20441;-82
2023/10/13 15:56:50;;;;;;;;;;;25.40;53.60;;;;;;5015067;28;19909;-82
2023/10/13 15:59:16;;;;;;;;;;;25.40;54.10;;;;;;5014676;28;19920;-82
2023/10/13 16:01:42;;;;;;;;;;;25.30;54.10;;;;;;5015159;28;19909;-81
2023/10/13 16:04:10;;;;;;;;;;;25.40;54.40;;;;;;5022530;28;20457;-80
2023/10/13 16:06:37;;;;;;;;;;;25.30;54.50;;;;;;5024101;28;19939;-81
2023/10/13 16:09:03;;;;;;;;;;;25.10;54.90;;;;;;5019388;28;19936;-84
2023/10/13 16:11:29;;;;;;;;;;;25.10;55.50;;;;;;5017389;28;20643;-85
2023/10/13 16:13:54;;;;;;;;;;;25.10;55.40;;;;;;5020903;28;19913;-82
2023/10/13 16:16:22;;;;;;;;;;;25.10;56.00;;;;;;5015383;28;19912;-83
2023/10/13 16:18:49;;;;;;;;;;;25.10;56.20;;;;;;5022329;28;19920;-88
2023/10/13 16:21:17;;;;;;;;;;;25.10;56.20;;;;;;5024021;28;20003;-88
2023/10/13 16:23:46;;;;;;;;;;;25.00;56.80;;;;;;5024011;28;19927;-87
2023/10/13 16:26:11;;;;;;;;;;;24.90;57.60;;;;;;5011845;28;20382;-89
2023/10/13 16:28:38;;;;;;;;;;;24.80;57.40;;;;;;5023426;28;19917;-88
2023/10/13 16:31:08;;;;;;;;;;;24.70;57.70;;;;;;5021418;28;20403;-83
2023/10/13 16:33:39;;;;;;;;;;;24.60;58.10;;;;;;5023351;28;20369;-87
2023/10/13 16:36:08;;;;;;;;;;;24.60;58.40;;;;;;5022613;28;19963;-89
2023/10/13 16:38:35;;;;;;;;;;;24.50;58.70;;;;;;5020503;28;20027;-89
2023/10/13 16:41:05;;;;;;;;;;;24.40;58.60;;;;;;5018893;28;19917;-86
2023/10/13 16:43:33;;;;;;;;;;;24.50;59.00;;;;;;5022775;28;19921;-87
2023/10/13 16:45:58;;;;;;;;;;;24.40;58.70;;;;;;5022301;28;20682;-85
2023/10/13 16:48:26;;;;;;;;;;;24.40;58.70;;;;;;5022548;28;19924;-85
2023/10/13 16:50:52;;;;;;;;;;;24.30;59.30;;;;;;5022001;28;20497;-84
2023/10/13 16:53:18;;;;;;;;;;;24.20;59.30;;;;;;5022447;28;19917;-85
2023/10/13 16:55:43;;;;;;;;;;;24.20;59.50;;;;;;5021963;28;20016;-86
2023/10/13 16:58:12;;;;;;;;;;;24.00;59.80;;;;;;5022186;28;20012;-86
2023/10/13 17:00:42;;;;;;;;;;;24.10;59.90;;;;;;5017547;28;19913;-89
2023/10/13 17:03:08;;;;;;;;;;;24.00;60.30;;;;;;5020518;28;19921;-86
2023/10/13 17:05:43;;;;;;;;;;;23.90;60.40;;;;;;5019461;28;20004;-88
2023/10/13 17:08:09;;;;;;;;;;;23.70;60.60;;;;;;5018719;28;19924;-88
2023/10/13 17:10:36;;;;;;;;;;;23.60;61.20;;;;;;5020064;28;19991;-88
2023/10/13 17:13:04;;;;;;;;;;;23.50;61.20;;;;;;5023164;28;19919;-89
2023/10/13 17:15:32;;;;;;;;;;;23.50;61.10;;;;;;5022814;28;19921;-89
2023/10/13 17:18:05;;;;;;;;;;;23.50;60.90;;;;;;5024290;28;20735;-89
2023/10/13 17:20:37;;;;;;;;;;;23.50;60.90;;;;;;5026382;28;19920;-87
2023/10/13 17:23:03;;;;;;;;;;;23.50;60.60;;;;;;5026305;28;19917;-88
2023/10/13 17:25:32;;;;;;;;;;;23.50;60.70;;;;;;5025220;28;19933;-87
2023/10/13 17:27:58;;;;;;;;;;;23.50;60.30;;;;;;5023506;28;19913;-88
2023/10/13 17:30:24;;;;;;;;;;;23.50;60.30;;;;;;5022691;28;19959;-88
2023/10/13 17:32:49;;;;;;;;;;;23.70;60.20;;;;;;5024871;28;20709;-89
2023/10/13 17:35:16;;;;;;;;;;;23.80;59.40;;;;;;5025490;28;19913;-86
2023/10/13 17:37:44;;;;;;;;;;;23.70;59.50;;;;;;5025179;28;20008;-89
2023/10/13 17:40:16;;;;;;;;;;;23.90;59.30;;;;;;5025595;28;19921;-87
2023/10/13 17:42:42;;;;;;;;;;;23.90;59.10;;;;;;5024186;28;19967;-86
2023/10/13 17:45:09;;;;;;;;;;;23.90;59.30;;;;;;5024066;28;19923;-88
2023/10/13 17:47:36;;;;;;;;;;;24.00;59.40;;;;;;5024112;28;19936;-86
2023/10/13 17:50:02;;;;;;;;;;;23.80;60.20;;;;;;5025660;28;19956;-87
2023/10/13 17:52:28;;;;;;;;;;;23.80;60.20;;;;;;5025824;28;19913;-88
2023/10/13 17:54:53;;;;;;;;;;;23.80;60.00;;;;;;5023511;28;19913;-87